X  Close Metar Aviation Weather Data     KGPT Gulfport Biloxi International Airport
Temperature
75°F Temperature
72°F Dewpoint
89% Humidity



Wind
5 MPH
8 KM/H
2 M/S
4 KTS



40°
NE
Current Conditions

Clear Clear
Pressure 1017.62 (hPa) - 30.05 (inHg)
Visibility 10 (mile) - 16.1 (km)
Airport
Airport-code KGPT

Location: Gulfport Biloxi International Airport
Distance: 14 (mi)

Metar:
KGPT 231353Z 04004KT 10SM CLR 24/22 A3005 RMK AO2 SLP176 T02390217

Time: 23-05-2022 08:53 CDT